Time;durP1;ratioP1;P1;durP2;ratioP2;P2;SDS_P1;SDS_P2;PMS_P1;PMS_P2;Temp;Humidity;BMP_temperature;BMP_pressure;BME280_temperature;BME280_humidity;BME280_pressure;Samples;Min_cycle;Max_cycle;Signal;HPM_P1;HPM_P2
2024/01/21 00:00:24;;;;;;;11.55;10.35;;;;;;;;;;5050263;28;20025;-62
2024/01/21 00:02:50;;;;;;;11.48;10.27;;;;;;;;;;5051364;28;20090;-63
2024/01/21 00:05:15;;;;;;;11.10;10.10;;;;;;;;;;5052460;28;20155;-65
2024/01/21 00:07:41;;;;;;;11.85;10.57;;;;;;;;;;5049503;28;20548;-64
2024/01/21 00:10:09;;;;;;;11.57;10.57;;;;;;;;;;5049959;28;20522;-62
2024/01/21 00:12:35;;;;;;;11.45;10.35;;;;;;;;;;5047882;28;20095;-62
2024/01/21 00:15:00;;;;;;;12.20;10.63;;;;;;;;;;5051381;28;20044;-63
2024/01/21 00:17:25;;;;;;;11.52;10.43;;;;;;;;;;5050299;28;20037;-63
2024/01/21 00:19:51;;;;;;;11.30;10.30;;;;;;;;;;5051041;28;20029;-64
2024/01/21 00:22:16;;;;;;;11.50;10.50;;;;;;;;;;5049706;28;20440;-64
2024/01/21 00:24:42;;;;;;;11.68;10.57;;;;;;;;;;5049246;28;20217;-63
2024/01/21 00:27:07;;;;;;;11.75;10.70;;;;;;;;;;5049784;28;20029;-63
2024/01/21 00:29:34;;;;;;;11.55;10.45;;;;;;;;;;5046974;28;20456;-63
2024/01/21 00:31:59;;;;;;;11.73;10.70;;;;;;;;;;5051586;28;20024;-64
2024/01/21 00:34:25;;;;;;;11.60;10.60;;;;;;;;;;5043742;28;20030;-63
2024/01/21 00:36:50;;;;;;;11.65;10.65;;;;;;;;;;5046889;28;20041;-63
2024/01/21 00:39:16;;;;;;;11.63;10.52;;;;;;;;;;5050502;28;20389;-63
2024/01/21 00:41:41;;;;;;;12.02;10.93;;;;;;;;;;5046482;28;20021;-62
2024/01/21 00:44:08;;;;;;;12.13;10.82;;;;;;;;;;5045217;28;20037;-63
2024/01/21 00:46:36;;;;;;;12.07;11.00;;;;;;;;;;5049628;28;20069;-63
2024/01/21 00:49:02;;;;;;;12.18;11.07;;;;;;;;;;5050804;28;20039;-64
2024/01/21 00:51:27;;;;;;;12.05;11.05;;;;;;;;;;5049702;28;20041;-62
2024/01/21 00:53:52;;;;;;;12.02;10.93;;;;;;;;;;5049974;28;20501;-65
2024/01/21 00:56:18;;;;;;;12.50;11.30;;;;;;;;;;5048264;28;20067;-63
2024/01/21 00:58:43;;;;;;;12.10;11.00;;;;;;;;;;5041105;28;20037;-63
2024/01/21 01:01:08;;;;;;;12.13;11.02;;;;;;;;;;5032699;28;20040;-63
2024/01/21 01:03:34;;;;;;;12.10;11.00;;;;;;;;;;5048856;28;20036;-63
2024/01/21 01:05:59;;;;;;;12.18;11.10;;;;;;;;;;5050203;28;20040;-64
2024/01/21 01:08:25;;;;;;;12.15;11.05;;;;;;;;;;5049523;28;20108;-62
2024/01/21 01:10:50;;;;;;;12.43;11.32;;;;;;;;;;5048918;28;20029;-63
2024/01/21 01:13:16;;;;;;;12.30;11.20;;;;;;;;;;5038769;28;20029;-64
2024/01/21 01:15:41;;;;;;;12.57;11.38;;;;;;;;;;5050480;28;20882;-63
2024/01/21 01:18:07;;;;;;;12.52;11.32;;;;;;;;;;5040922;28;20104;-63
2024/01/21 01:20:32;;;;;;;12.30;11.20;;;;;;;;;;5050542;28;20128;-64
2024/01/21 01:22:58;;;;;;;12.68;11.48;;;;;;;;;;5050174;28;20045;-63
2024/01/21 01:25:26;;;;;;;12.75;11.45;;;;;;;;;;5044534;28;20428;-63
2024/01/21 01:27:51;;;;;;;12.43;11.32;;;;;;;;;;5050157;28;20377;-63
2024/01/21 01:30:16;;;;;;;12.88;11.68;;;;;;;;;;5051396;28;20078;-64
2024/01/21 01:32:42;;;;;;;12.93;11.75;;;;;;;;;;5050621;28;20021;-64
2024/01/21 01:35:08;;;;;;;12.88;11.68;;;;;;;;;;5037972;28;20041;-65
2024/01/21 01:37:34;;;;;;;12.93;11.77;;;;;;;;;;5030987;28;20170;-64
2024/01/21 01:39:59;;;;;;;12.82;11.65;;;;;;;;;;5031451;28;20113;-64
2024/01/21 01:42:24;;;;;;;13.18;11.88;;;;;;;;;;5042511;28;20108;-63
2024/01/21 01:44:50;;;;;;;12.88;11.57;;;;;;;;;;5035401;28;20029;-63
2024/01/21 01:47:16;;;;;;;13.20;11.93;;;;;;;;;;5051075;28;20041;-63
2024/01/21 01:49:42;;;;;;;13.48;12.18;;;;;;;;;;5050386;28;20036;-63
2024/01/21 01:52:12;;;;;;;13.05;11.80;;;;;;;;;;5051219;28;20025;-63
2024/01/21 01:54:39;;;;;;;13.15;11.85;;;;;;;;;;5049404;28;20061;-63
2024/01/21 01:57:07;;;;;;;12.85;11.65;;;;;;;;;;5045575;28;20041;-63
2024/01/21 01:59:33;;;;;;;13.05;11.85;;;;;;;;;;5049402;28;20044;-64
2024/01/21 02:01:59;;;;;;;13.18;11.88;;;;;;;;;;5048995;28;20028;-64
2024/01/21 02:04:24;;;;;;;13.30;12.00;;;;;;;;;;5048783;28;20033;-62
2024/01/21 02:06:52;;;;;;;12.95;11.82;;;;;;;;;;5044477;28;20060;-64
2024/01/21 02:09:17;;;;;;;13.23;11.98;;;;;;;;;;5047922;28;20112;-64
2024/01/21 02:11:43;;;;;;;13.20;11.90;;;;;;;;;;5051409;28;20128;-64
2024/01/21 02:14:09;;;;;;;13.20;11.95;;;;;;;;;;5051086;28;20029;-63
2024/01/21 02:16:35;;;;;;;13.52;12.23;;;;;;;;;;5051660;28;20041;-62
2024/01/21 02:19:04;;;;;;;13.48;12.20;;;;;;;;;;5051626;28;20377;-64
2024/01/21 02:21:30;;;;;;;13.40;12.10;;;;;;;;;;5050726;28;20107;-62
2024/01/21 02:23:55;;;;;;;13.20;12.00;;;;;;;;;;5052298;28;20470;-64
2024/01/21 02:26:20;;;;;;;13.85;12.45;;;;;;;;;;5048765;28;20075;-65
2024/01/21 02:28:46;;;;;;;13.23;11.95;;;;;;;;;;5049000;28;20091;-62
2024/01/21 02:31:11;;;;;;;13.45;12.15;;;;;;;;;;5053526;28;20158;-65
2024/01/21 02:33:36;;;;;;;13.60;12.20;;;;;;;;;;5040499;28;20492;-64
2024/01/21 02:36:02;;;;;;;13.23;11.93;;;;;;;;;;5052088;28;20040;-62
2024/01/21 02:38:28;;;;;;;13.65;12.35;;;;;;;;;;5053045;28;20051;-62
2024/01/21 02:40:53;;;;;;;13.60;12.30;;;;;;;;;;5051801;28;20489;-64
2024/01/21 02:43:19;;;;;;;14.63;12.35;;;;;;;;;;5053610;28;20112;-64
2024/01/21 02:45:44;;;;;;;13.48;12.18;;;;;;;;;;5043829;28;20450;-64
2024/01/21 02:48:09;;;;;;;14.07;12.32;;;;;;;;;;5051510;28;20071;-63
2024/01/21 02:50:35;;;;;;;13.35;12.05;;;;;;;;;;5051711;28;20033;-62
2024/01/21 02:53:00;;;;;;;13.45;12.05;;;;;;;;;;5049483;28;20037;-62
2024/01/21 02:55:25;;;;;;;13.32;12.02;;;;;;;;;;5048642;28;20490;-64
2024/01/21 02:57:51;;;;;;;13.48;12.13;;;;;;;;;;5049619;28;20040;-63
2024/01/21 03:00:16;;;;;;;13.63;12.23;;;;;;;;;;5050597;28;20037;-64
2024/01/21 03:02:42;;;;;;;13.63;12.27;;;;;;;;;;5052218;28;20339;-63
2024/01/21 03:05:07;;;;;;;13.60;12.30;;;;;;;;;;5052699;28;20131;-64
2024/01/21 03:07:33;;;;;;;13.95;12.55;;;;;;;;;;5045279;28;20078;-63
2024/01/21 03:09:58;;;;;;;13.70;12.35;;;;;;;;;;5051743;28;20112;-64
2024/01/21 03:12:24;;;;;;;13.82;12.30;;;;;;;;;;5050543;28;20163;-64
2024/01/21 03:14:49;;;;;;;14.20;12.48;;;;;;;;;;5047425;28;20055;-63
2024/01/21 03:17:14;;;;;;;13.55;12.25;;;;;;;;;;5049968;28;20024;-63
2024/01/21 03:19:40;;;;;;;13.80;12.45;;;;;;;;;;5049271;28;20115;-64
2024/01/21 03:22:05;;;;;;;13.63;12.27;;;;;;;;;;5050620;28;20049;-63
2024/01/21 03:24:31;;;;;;;14.10;12.55;;;;;;;;;;5048014;28;20102;-62
2024/01/21 03:26:57;;;;;;;13.73;12.32;;;;;;;;;;5048562;28;20029;-64
2024/01/21 03:29:23;;;;;;;13.35;12.00;;;;;;;;;;5053249;28;20161;-64
2024/01/21 03:31:48;;;;;;;13.13;11.93;;;;;;;;;;5047900;28;20107;-66
2024/01/21 03:34:14;;;;;;;13.98;12.40;;;;;;;;;;5053055;28;20108;-63
2024/01/21 03:36:39;;;;;;;13.00;11.80;;;;;;;;;;5050936;28;20045;-63
2024/01/21 03:39:05;;;;;;;13.50;12.20;;;;;;;;;;5052565;28;20465;-63
2024/01/21 03:41:31;;;;;;;13.95;12.55;;;;;;;;;;5052806;28;20079;-62
2024/01/21 03:43:56;;;;;;;13.70;12.30;;;;;;;;;;5048689;28;20037;-63
2024/01/21 03:46:23;;;;;;;13.65;12.15;;;;;;;;;;5051555;28;20044;-63
2024/01/21 03:48:48;;;;;;;13.70;12.20;;;;;;;;;;5034977;28;20116;-62
2024/01/21 03:51:13;;;;;;;13.30;12.00;;;;;;;;;;5050196;28;20120;-63
2024/01/21 03:53:40;;;;;;;13.43;12.20;;;;;;;;;;5050840;28;20108;-62
2024/01/21 03:56:06;;;;;;;12.68;11.48;;;;;;;;;;5043925;28;20123;-63
2024/01/21 03:58:32;;;;;;;13.38;12.07;;;;;;;;;;5048955;28;20029;-62
2024/01/21 04:00:57;;;;;;;13.70;12.30;;;;;;;;;;5048313;28;20033;-63
2024/01/21 04:03:23;;;;;;;13.25;11.95;;;;;;;;;;5049133;28;20366;-63
2024/01/21 04:05:48;;;;;;;13.20;11.90;;;;;;;;;;5049443;28;20416;-62
2024/01/21 04:08:14;;;;;;;14.27;11.98;;;;;;;;;;5047805;28;20033;-62
2024/01/21 04:10:40;;;;;;;13.10;11.80;;;;;;;;;;5050613;28;20029;-62
2024/01/21 04:13:05;;;;;;;13.20;11.90;;;;;;;;;;5052251;28;20036;-63
2024/01/21 04:15:30;;;;;;;13.70;12.25;;;;;;;;;;5048538;28;20394;-63
2024/01/21 04:17:56;;;;;;;12.82;11.63;;;;;;;;;;5047847;28;20029;-62
2024/01/21 04:20:21;;;;;;;12.63;11.43;;;;;;;;;;5050546;28;20055;-63
2024/01/21 04:22:46;;;;;;;13.40;12.00;;;;;;;;;;5047399;28;20045;-62
2024/01/21 04:25:12;;;;;;;13.00;11.80;;;;;;;;;;5048850;28;20110;-64
2024/01/21 04:27:37;;;;;;;13.20;11.90;;;;;;;;;;5048587;28;20033;-62
2024/01/21 04:30:03;;;;;;;13.52;12.20;;;;;;;;;;5037857;28;20040;-62
2024/01/21 04:32:29;;;;;;;13.27;11.98;;;;;;;;;;5038540;28;20029;-63
2024/01/21 04:34:54;;;;;;;13.30;12.00;;;;;;;;;;5045250;28;20025;-62
2024/01/21 04:37:20;;;;;;;13.18;11.88;;;;;;;;;;5036833;28;20143;-62
2024/01/21 04:39:45;;;;;;;13.35;12.05;;;;;;;;;;5047360;28;20031;-62
2024/01/21 04:42:10;;;;;;;13.02;11.73;;;;;;;;;;5050191;28;20032;-63
2024/01/21 04:44:36;;;;;;;13.50;12.10;;;;;;;;;;5032896;28;20178;-61
2024/01/21 04:47:01;;;;;;;13.48;12.10;;;;;;;;;;5047045;28;20087;-63
2024/01/21 04:49:26;;;;;;;13.45;12.05;;;;;;;;;;5050786;28;20118;-63
2024/01/21 04:51:52;;;;;;;13.18;11.88;;;;;;;;;;5046169;28;20029;-62
2024/01/21 04:54:17;;;;;;;13.40;12.10;;;;;;;;;;5050896;28;20029;-63
2024/01/21 04:56:43;;;;;;;13.30;11.90;;;;;;;;;;5046278;28;20041;-62
2024/01/21 04:59:09;;;;;;;13.57;12.18;;;;;;;;;;5050212;28;20039;-63
2024/01/21 05:01:35;;;;;;;13.73;12.20;;;;;;;;;;5046822;28;20033;-62
2024/01/21 05:04:00;;;;;;;13.48;12.07;;;;;;;;;;5050340;28;20423;-63
2024/01/21 05:06:26;;;;;;;13.02;11.80;;;;;;;;;;5036138;28;20041;-63
2024/01/21 05:08:51;;;;;;;13.20;11.90;;;;;;;;;;5037326;28;20483;-62
2024/01/21 05:11:16;;;;;;;13.32;11.88;;;;;;;;;;5046612;28;20047;-62
2024/01/21 05:13:42;;;;;;;13.13;11.82;;;;;;;;;;5036185;28;20025;-62
2024/01/21 05:16:08;;;;;;;12.80;11.25;;;;;;;;;;5049702;28;20068;-62
2024/01/21 05:18:33;;;;;;;12.70;11.48;;;;;;;;;;5049051;28;20032;-62
2024/01/21 05:20:59;;;;;;;13.32;12.02;;;;;;;;;;5049577;28;20100;-63
2024/01/21 05:23:25;;;;;;;13.10;11.70;;;;;;;;;;5045228;28;20057;-63
2024/01/21 05:25:52;;;;;;;12.63;11.43;;;;;;;;;;5033583;28;20080;-62
2024/01/21 05:28:18;;;;;;;13.52;11.70;;;;;;;;;;5049344;28;20458;-63
2024/01/21 05:30:43;;;;;;;13.05;11.82;;;;;;;;;;5047939;28;20036;-62
2024/01/21 05:33:09;;;;;;;12.82;11.55;;;;;;;;;;5047576;28;20386;-63
2024/01/21 05:35:34;;;;;;;12.60;11.40;;;;;;;;;;5048159;28;20083;-63
2024/01/21 05:37:59;;;;;;;12.90;11.70;;;;;;;;;;5047967;28;20028;-64
2024/01/21 05:40:25;;;;;;;12.82;11.52;;;;;;;;;;5049086;28;20450;-63
2024/01/21 05:42:51;;;;;;;12.68;11.45;;;;;;;;;;5044114;28;20033;-63
2024/01/21 05:45:17;;;;;;;12.52;11.40;;;;;;;;;;5047849;28;20032;-62
2024/01/21 05:47:42;;;;;;;13.13;11.85;;;;;;;;;;5052466;28;20064;-62
2024/01/21 05:50:08;;;;;;;12.70;11.40;;;;;;;;;;5052397;28;20146;-63
2024/01/21 05:52:33;;;;;;;13.50;12.10;;;;;;;;;;5055228;28;20052;-63
2024/01/21 05:54:59;;;;;;;12.90;11.60;;;;;;;;;;5053191;28;20179;-65
2024/01/21 05:57:24;;;;;;;13.02;11.73;;;;;;;;;;5049388;28;20041;-63
2024/01/21 05:59:49;;;;;;;12.73;11.43;;;;;;;;;;5053545;28;20025;-63
2024/01/21 06:02:15;;;;;;;13.20;11.70;;;;;;;;;;5060657;28;20533;-63
2024/01/21 06:04:40;;;;;;;12.95;11.68;;;;;;;;;;5063201;28;20035;-62
2024/01/21 06:07:09;;;;;;;12.57;11.38;;;;;;;;;;5051057;28;20432;-63
2024/01/21 06:09:34;;;;;;;12.55;11.35;;;;;;;;;;5034639;28;20476;-63
2024/01/21 06:11:59;;;;;;;12.55;11.35;;;;;;;;;;5034067;28;20117;-63
2024/01/21 06:14:25;;;;;;;12.48;11.30;;;;;;;;;;5040443;28;20021;-63
2024/01/21 06:16:53;;;;;;;12.55;11.38;;;;;;;;;;5053570;28;20449;-63
2024/01/21 06:19:19;;;;;;;12.93;11.73;;;;;;;;;;5054142;28;20513;-64
2024/01/21 06:21:44;;;;;;;13.45;12.13;;;;;;;;;;5053609;28;20137;-63
2024/01/21 06:24:13;;;;;;;12.25;11.05;;;;;;;;;;5053668;28;20454;-64
2024/01/21 06:26:40;;;;;;;12.65;11.35;;;;;;;;;;5054413;28;20087;-64
2024/01/21 06:29:06;;;;;;;13.45;12.10;;;;;;;;;;5053243;28;20051;-64
2024/01/21 06:31:32;;;;;;;12.70;11.50;;;;;;;;;;5035261;28;20041;-64
2024/01/21 06:33:57;;;;;;;13.00;11.68;;;;;;;;;;5033455;28;20064;-63
2024/01/21 06:36:23;;;;;;;13.18;11.93;;;;;;;;;;5034377;28;20083;-64
2024/01/21 06:38:48;;;;;;;13.98;12.35;;;;;;;;;;5033375;28;20485;-64
2024/01/21 06:41:15;;;;;;;12.98;11.70;;;;;;;;;;5034399;28;20025;-64
2024/01/21 06:43:40;;;;;;;13.02;11.73;;;;;;;;;;5034432;28;20041;-64
2024/01/21 06:46:06;;;;;;;13.43;12.02;;;;;;;;;;5039718;28;20043;-65
2024/01/21 06:48:31;;;;;;;13.20;11.90;;;;;;;;;;5052987;28;20362;-64
2024/01/21 06:50:57;;;;;;;15.75;12.40;;;;;;;;;;5053014;28;20077;-64
2024/01/21 06:53:22;;;;;;;12.95;11.75;;;;;;;;;;5051394;28;20033;-65
2024/01/21 06:55:48;;;;;;;13.43;12.02;;;;;;;;;;5033247;28;20033;-63
2024/01/21 06:58:13;;;;;;;13.20;11.93;;;;;;;;;;5032669;28;20112;-63
2024/01/21 07:00:39;;;;;;;13.13;11.82;;;;;;;;;;5046380;28;20021;-62
2024/01/21 07:03:04;;;;;;;12.93;11.65;;;;;;;;;;5034444;28;20044;-62
2024/01/21 07:05:30;;;;;;;12.43;11.30;;;;;;;;;;5033841;28;20044;-62
2024/01/21 07:07:56;;;;;;;12.98;11.68;;;;;;;;;;5032884;28;20034;-63
2024/01/21 07:10:21;;;;;;;13.48;12.18;;;;;;;;;;5033876;28;20037;-63
2024/01/21 07:12:47;;;;;;;13.13;11.82;;;;;;;;;;5032465;28;20052;-63
2024/01/21 07:15:12;;;;;;;13.48;12.07;;;;;;;;;;5046265;28;20535;-63
2024/01/21 07:17:39;;;;;;;13.15;11.88;;;;;;;;;;5053118;28;20082;-63
2024/01/21 07:20:05;;;;;;;13.18;11.88;;;;;;;;;;5051352;28;20103;-63
2024/01/21 07:22:31;;;;;;;13.38;12.05;;;;;;;;;;5052463;28;20128;-63
2024/01/21 07:24:56;;;;;;;13.13;11.82;;;;;;;;;;5052500;28;20485;-62
2024/01/21 07:27:22;;;;;;;14.07;12.68;;;;;;;;;;5051382;28;20058;-62
2024/01/21 07:29:47;;;;;;;13.20;11.88;;;;;;;;;;5046249;28;20425;-62
2024/01/21 07:32:13;;;;;;;16.48;12.05;;;;;;;;;;5042336;28;20026;-62
2024/01/21 07:34:38;;;;;;;13.55;12.25;;;;;;;;;;5041473;28;20021;-62
2024/01/21 07:37:03;;;;;;;13.45;12.05;;;;;;;;;;5049171;28;20037;-62
2024/01/21 07:39:29;;;;;;;13.40;12.02;;;;;;;;;;5045789;28;20355;-63
2024/01/21 07:41:54;;;;;;;15.75;12.60;;;;;;;;;;5040899;28;20044;-62
2024/01/21 07:44:19;;;;;;;13.65;12.23;;;;;;;;;;5033958;28;20389;-63
2024/01/21 07:46:45;;;;;;;14.30;12.30;;;;;;;;;;5032278;28;20026;-63
2024/01/21 07:49:10;;;;;;;14.20;12.27;;;;;;;;;;5032180;28;20057;-63
2024/01/21 07:51:35;;;;;;;12.93;11.60;;;;;;;;;;5046726;28;20033;-64
2024/01/21 07:54:01;;;;;;;13.98;12.40;;;;;;;;;;5050114;28;20040;-64
2024/01/21 07:56:26;;;;;;;13.73;12.32;;;;;;;;;;5043212;28;20045;-62
2024/01/21 07:58:52;;;;;;;12.68;11.38;;;;;;;;;;5031179;28;20026;-63
2024/01/21 08:01:21;;;;;;;14.50;12.43;;;;;;;;;;5032717;28;20069;-67
2024/01/21 08:03:47;;;;;;;13.02;11.75;;;;;;;;;;5032462;28;20454;-63
2024/01/21 08:06:12;;;;;;;12.73;11.52;;;;;;;;;;5048288;28;20047;-63
2024/01/21 08:08:37;;;;;;;13.55;12.20;;;;;;;;;;5050155;28;20033;-61
2024/01/21 08:11:03;;;;;;;15.48;12.32;;;;;;;;;;5050035;28;20021;-62
2024/01/21 08:13:29;;;;;;;13.52;12.18;;;;;;;;;;5051450;28;20036;-62
2024/01/21 08:15:54;;;;;;;13.35;12.02;;;;;;;;;;5051362;28;20086;-61
2024/01/21 08:18:20;;;;;;;13.43;12.10;;;;;;;;;;5052283;28;20151;-64
2024/01/21 08:20:46;;;;;;;12.93;11.55;;;;;;;;;;5052084;28;20086;-63
2024/01/21 08:23:12;;;;;;;13.65;12.25;;;;;;;;;;5051334;28;20049;-63
2024/01/21 08:25:37;;;;;;;14.88;12.50;;;;;;;;;;5051810;28;20090;-62
2024/01/21 08:28:03;;;;;;;15.52;12.55;;;;;;;;;;5050850;28;20032;-62
2024/01/21 08:30:29;;;;;;;13.88;12.43;;;;;;;;;;5051431;28;20527;-63
2024/01/21 08:32:54;;;;;;;14.93;13.00;;;;;;;;;;5043866;28;20535;-63
2024/01/21 08:35:20;;;;;;;16.23;13.57;;;;;;;;;;5069435;28;20041;-64
2024/01/21 08:37:49;;;;;;;13.55;12.15;;;;;;;;;;5072289;28;20391;-63
2024/01/21 08:40:14;;;;;;;14.98;12.95;;;;;;;;;;5038614;28;20024;-63
2024/01/21 08:42:40;;;;;;;14.20;12.77;;;;;;;;;;5051959;28;20028;-62
2024/01/21 08:45:06;;;;;;;13.07;11.75;;;;;;;;;;5040579;28;20034;-62
2024/01/21 08:47:32;;;;;;;14.35;12.85;;;;;;;;;;5032488;28;20025;-63
2024/01/21 08:49:58;;;;;;;14.20;12.07;;;;;;;;;;5031208;28;20103;-63
2024/01/21 08:52:23;;;;;;;13.10;11.82;;;;;;;;;;5035150;28;20037;-64
2024/01/21 08:54:49;;;;;;;13.05;11.77;;;;;;;;;;5032125;28;20500;-63
2024/01/21 08:57:15;;;;;;;14.07;12.57;;;;;;;;;;5031372;28;20045;-62
2024/01/21 08:59:40;;;;;;;12.73;11.45;;;;;;;;;;5032167;28;20068;-62
2024/01/21 09:02:05;;;;;;;13.57;12.13;;;;;;;;;;5043829;28;20363;-62
2024/01/21 09:04:31;;;;;;;13.48;12.07;;;;;;;;;;5044173;28;20397;-63
2024/01/21 09:06:56;;;;;;;13.48;12.07;;;;;;;;;;5039341;28;20449;-62
2024/01/21 09:09:21;;;;;;;13.73;12.32;;;;;;;;;;5050442;28;20068;-62
2024/01/21 09:11:47;;;;;;;17.60;12.55;;;;;;;;;;5038599;28;20500;-62
2024/01/21 09:14:12;;;;;;;14.32;12.82;;;;;;;;;;5033776;28;20044;-62
2024/01/21 09:16:38;;;;;;;14.30;12.77;;;;;;;;;;5031709;28;20033;-62
2024/01/21 09:19:05;;;;;;;13.95;12.23;;;;;;;;;;5044291;28;20513;-61
2024/01/21 09:21:31;;;;;;;13.77;12.32;;;;;;;;;;5050978;28;20043;-62
2024/01/21 09:23:57;;;;;;;14.10;11.77;;;;;;;;;;5034958;28;20034;-62
2024/01/21 09:26:23;;;;;;;15.52;12.82;;;;;;;;;;5039611;28;20056;-63
2024/01/21 09:28:49;;;;;;;15.02;12.02;;;;;;;;;;5055629;28;20531;-63
2024/01/21 09:31:14;;;;;;;13.50;11.75;;;;;;;;;;5054820;28;20032;-63
2024/01/21 09:33:39;;;;;;;15.20;13.15;;;;;;;;;;5050214;28;20029;-62
2024/01/21 09:36:05;;;;;;;13.30;12.00;;;;;;;;;;5046907;28;20086;-63
2024/01/21 09:38:30;;;;;;;13.75;12.35;;;;;;;;;;5055135;28;20328;-64
2024/01/21 09:41:01;;;;;;;13.48;12.07;;;;;;;;;;5054183;28;20484;-63
2024/01/21 09:43:28;;;;;;;13.40;11.88;;;;;;;;;;5055457;28;20043;-63
2024/01/21 09:45:55;;;;;;;13.48;12.07;;;;;;;;;;5054595;28;20037;-63
2024/01/21 09:48:20;;;;;;;14.50;12.95;;;;;;;;;;5046970;28;20033;-64
2024/01/21 09:50:47;;;;;;;14.73;13.13;;;;;;;;;;5043478;28;20021;-63
2024/01/21 09:53:13;;;;;;;14.50;11.88;;;;;;;;;;5034697;28;20036;-63
2024/01/21 09:55:38;;;;;;;16.02;12.93;;;;;;;;;;5035045;28;20025;-63
2024/01/21 09:58:07;;;;;;;13.77;12.35;;;;;;;;;;5034087;28;20040;-63
2024/01/21 10:00:33;;;;;;;15.70;13.38;;;;;;;;;;5034899;28;20029;-63
2024/01/21 10:02:58;;;;;;;13.52;12.13;;;;;;;;;;5033891;28;20590;-62
2024/01/21 10:05:23;;;;;;;13.60;12.10;;;;;;;;;;5050576;28;20124;-64
2024/01/21 10:07:49;;;;;;;14.38;12.88;;;;;;;;;;5034668;28;20372;-65
2024/01/21 10:10:15;;;;;;;15.43;12.70;;;;;;;;;;5033671;28;20063;-64
2024/01/21 10:12:42;;;;;;;13.48;12.07;;;;;;;;;;5044760;28;20057;-64
2024/01/21 10:15:07;;;;;;;15.90;13.15;;;;;;;;;;5040615;28;20029;-64
2024/01/21 10:17:34;;;;;;;14.35;12.40;;;;;;;;;;5049354;28;20041;-65
2024/01/21 10:20:00;;;;;;;13.15;11.75;;;;;;;;;;5051804;28;20039;-64
2024/01/21 10:22:25;;;;;;;14.15;12.65;;;;;;;;;;5042942;28;20049;-65
2024/01/21 10:24:51;;;;;;;18.20;13.10;;;;;;;;;;5049008;28;20421;-65
2024/01/21 10:27:16;;;;;;;14.63;12.27;;;;;;;;;;5045271;28;20095;-65
2024/01/21 10:29:44;;;;;;;14.93;12.35;;;;;;;;;;5041132;28;20458;-66
2024/01/21 10:32:11;;;;;;;15.10;12.57;;;;;;;;;;5041701;28;20048;-65
2024/01/21 10:34:40;;;;;;;14.45;12.57;;;;;;;;;;5043817;28;20044;-65
2024/01/21 10:37:07;;;;;;;13.20;11.68;;;;;;;;;;5033758;28;20037;-63
2024/01/21 10:39:37;;;;;;;12.18;10.98;;;;;;;;;;5034460;28;20033;-65
2024/01/21 10:42:05;;;;;;;14.68;12.27;;;;;;;;;;5033752;28;20044;-64
2024/01/21 10:44:31;;;;;;;13.20;11.77;;;;;;;;;;5034198;28;20064;-65
2024/01/21 10:46:58;;;;;;;17.05;12.05;;;;;;;;;;5045992;28;20054;-64
2024/01/21 10:49:24;;;;;;;11.75;10.57;;;;;;;;;;5058741;28;20043;-64
2024/01/21 10:51:53;;;;;;;12.40;11.10;;;;;;;;;;5039444;28;20038;-64
2024/01/21 10:54:19;;;;;;;11.65;10.50;;;;;;;;;;5052163;28;20056;-64
2024/01/21 10:56:47;;;;;;;12.20;10.25;;;;;;;;;;5047357;28;20401;-65
2024/01/21 10:59:13;;;;;;;12.65;10.20;;;;;;;;;;5042470;28;20410;-64
2024/01/21 11:01:42;;;;;;;12.07;10.25;;;;;;;;;;5053227;28;20032;-65
2024/01/21 11:04:12;;;;;;;10.18;9.18;;;;;;;;;;5051533;28;20122;-66
2024/01/21 11:06:43;;;;;;;11.57;10.20;;;;;;;;;;5051070;28;20496;-66
2024/01/21 11:09:09;;;;;;;11.52;9.00;;;;;;;;;;5052599;28;20040;-64
2024/01/21 11:11:41;;;;;;;10.73;9.20;;;;;;;;;;5052555;28;20096;-65
2024/01/21 11:14:33;;;;;;;11.48;8.98;;;;;;;;;;5052534;28;20112;-65
2024/01/21 11:17:01;;;;;;;11.40;8.10;;;;;;;;;;5035802;28;20116;-64
2024/01/21 11:19:30;;;;;;;11.23;8.10;;;;;;;;;;5033877;28;20033;-65
2024/01/21 11:21:58;;;;;;;7.55;6.65;;;;;;;;;;5051396;28;20056;-64
2024/01/21 11:24:30;;;;;;;10.45;7.40;;;;;;;;;;5036544;28;20471;-64
2024/01/21 11:26:56;;;;;;;9.80;6.40;;;;;;;;;;5033052;28;20120;-65
2024/01/21 11:29:29;;;;;;;8.50;6.93;;;;;;;;;;5032813;28;20079;-65
2024/01/21 11:32:03;;;;;;;8.88;5.95;;;;;;;;;;5032973;28;20052;-65
2024/01/21 11:34:36;;;;;;;10.02;6.78;;;;;;;;;;5033290;28;20097;-65
2024/01/21 11:37:01;;;;;;;10.70;6.47;;;;;;;;;;5035320;28;20033;-63
2024/01/21 11:39:27;;;;;;;10.65;6.40;;;;;;;;;;5053124;28;20040;-65
2024/01/21 11:41:52;;;;;;;7.97;5.35;;;;;;;;;;5051901;28;20031;-64
2024/01/21 11:44:25;;;;;;;12.23;4.88;;;;;;;;;;5048245;28;20606;-65
2024/01/21 11:46:53;;;;;;;10.00;6.00;;;;;;;;;;5044448;28;20033;-64
2024/01/21 11:49:20;;;;;;;6.15;4.15;;;;;;;;;;5034647;28;20025;-64
2024/01/21 11:51:46;;;;;;;8.75;4.75;;;;;;;;;;5041765;28;20036;-65
2024/01/21 11:54:12;;;;;;;9.50;4.68;;;;;;;;;;5052043;28;20428;-65
2024/01/21 11:56:39;;;;;;;7.75;4.35;;;;;;;;;;5052928;28;20037;-63
2024/01/21 11:59:06;;;;;;;10.50;4.72;;;;;;;;;;5051720;28;20033;-65
2024/01/21 12:01:33;;;;;;;8.80;4.30;;;;;;;;;;5051074;28;20048;-64
2024/01/21 12:04:03;;;;;;;7.97;4.32;;;;;;;;;;5046961;28;20355;-63
2024/01/21 12:06:34;;;;;;;7.47;4.00;;;;;;;;;;5040427;28;20173;-64
2024/01/21 12:09:00;;;;;;;8.50;4.45;;;;;;;;;;5051948;28;20253;-64
2024/01/21 12:11:26;;;;;;;8.02;4.20;;;;;;;;;;5052152;28;20453;-64
2024/01/21 12:13:52;;;;;;;9.07;4.32;;;;;;;;;;5035297;28;20039;-64
2024/01/21 12:16:18;;;;;;;7.90;4.07;;;;;;;;;;5038834;28;20079;-64
2024/01/21 12:18:44;;;;;;;9.25;5.45;;;;;;;;;;5046910;28;20028;-65
2024/01/21 12:21:13;;;;;;;11.38;5.78;;;;;;;;;;5049608;28;20032;-63
2024/01/21 12:23:47;;;;;;;8.80;4.38;;;;;;;;;;5051573;28;20080;-64
2024/01/21 12:26:17;;;;;;;8.40;4.65;;;;;;;;;;5051167;28;20362;-64
2024/01/21 12:28:57;;;;;;;8.65;4.03;;;;;;;;;;5045880;28;20029;-63
2024/01/21 12:31:26;;;;;;;8.10;4.30;;;;;;;;;;5047394;28;20032;-67
2024/01/21 12:33:51;;;;;;;9.05;4.93;;;;;;;;;;5050599;28;20033;-63
2024/01/21 12:36:17;;;;;;;10.20;5.00;;;;;;;;;;5051271;28;20385;-63
2024/01/21 12:38:42;;;;;;;12.60;5.90;;;;;;;;;;5051643;28;20033;-63
2024/01/21 12:41:07;;;;;;;8.60;4.68;;;;;;;;;;5037999;28;20021;-64
2024/01/21 12:43:33;;;;;;;10.90;5.70;;;;;;;;;;5032428;28;20068;-61
2024/01/21 12:45:59;;;;;;;10.40;5.95;;;;;;;;;;5031599;28;20029;-65
2024/01/21 12:48:25;;;;;;;11.25;5.25;;;;;;;;;;5031173;28;20328;-69
2024/01/21 12:50:50;;;;;;;11.73;6.03;;;;;;;;;;5032081;28;20496;-63
2024/01/21 12:53:15;;;;;;;9.48;5.40;;;;;;;;;;5031228;28;20137;-65
2024/01/21 12:55:41;;;;;;;10.73;5.72;;;;;;;;;;5031366;28;20037;-65
2024/01/21 12:58:09;;;;;;;14.68;6.60;;;;;;;;;;5030650;28;20496;-65
2024/01/21 13:00:34;;;;;;;11.05;5.50;;;;;;;;;;5035215;28;20492;-67
2024/01/21 13:02:59;;;;;;;10.82;5.47;;;;;;;;;;5037703;28;20053;-64
2024/01/21 13:05:25;;;;;;;12.60;6.45;;;;;;;;;;5033974;28;20037;-64
2024/01/21 13:07:52;;;;;;;16.20;6.32;;;;;;;;;;5050253;28;20049;-64
2024/01/21 13:10:18;;;;;;;12.18;6.53;;;;;;;;;;5050374;28;20122;-63
2024/01/21 13:12:43;;;;;;;9.75;5.20;;;;;;;;;;5051788;28;20427;-63
2024/01/21 13:15:09;;;;;;;9.95;5.60;;;;;;;;;;5050491;28;20105;-64
2024/01/21 13:17:35;;;;;;;9.95;5.57;;;;;;;;;;5043565;28;20223;-64
2024/01/21 13:20:00;;;;;;;12.30;6.18;;;;;;;;;;5056619;28;20025;-64
2024/01/21 13:22:26;;;;;;;10.73;6.22;;;;;;;;;;5050949;28;20048;-64
2024/01/21 13:24:51;;;;;;;11.68;6.63;;;;;;;;;;5051467;28;20504;-63
2024/01/21 13:27:26;;;;;;;9.98;5.82;;;;;;;;;;5049216;28;20044;-63
2024/01/21 13:32:37;;;;;;;10.60;5.72;;;;;;;;;;5031429;28;20382;-64
2024/01/21 13:35:02;;;;;;;10.48;6.20;;;;;;;;;;5037907;28;20029;-65
2024/01/21 13:37:28;;;;;;;9.20;5.65;;;;;;;;;;5035432;28;20136;-65
2024/01/21 13:39:53;;;;;;;10.35;5.38;;;;;;;;;;5032362;28;20034;-65
2024/01/21 13:42:19;;;;;;;13.45;6.20;;;;;;;;;;5030988;28;20040;-65
2024/01/21 13:44:44;;;;;;;8.52;4.72;;;;;;;;;;5031006;28;20033;-65
2024/01/21 13:47:10;;;;;;;14.07;6.70;;;;;;;;;;5056905;28;20043;-66
2024/01/21 13:49:35;;;;;;;11.43;6.43;;;;;;;;;;5050950;28;20465;-64
2024/01/21 13:52:01;;;;;;;12.13;6.07;;;;;;;;;;5051126;28;20033;-64
2024/01/21 13:54:27;;;;;;;11.73;6.85;;;;;;;;;;5035351;28;20025;-65
2024/01/21 13:56:53;;;;;;;9.82;5.80;;;;;;;;;;5031397;28;20044;-64
2024/01/21 13:59:18;;;;;;;13.95;6.78;;;;;;;;;;5029884;28;20037;-64
2024/01/21 14:01:44;;;;;;;9.73;5.50;;;;;;;;;;5031393;28;20064;-64
2024/01/21 14:04:09;;;;;;;10.75;6.13;;;;;;;;;;5030177;28;20371;-65
2024/01/21 14:06:34;;;;;;;12.00;6.30;;;;;;;;;;5046688;28;20108;-63
2024/01/21 14:09:00;;;;;;;10.82;6.45;;;;;;;;;;5037053;28;20033;-63
2024/01/21 14:11:25;;;;;;;9.75;5.72;;;;;;;;;;5034733;28;20109;-63
2024/01/21 14:13:50;;;;;;;11.45;5.60;;;;;;;;;;5036150;28;20146;-63
2024/01/21 14:16:17;;;;;;;8.63;5.30;;;;;;;;;;5034419;28;20048;-64